Time;durP1;ratioP1;P1;durP2;ratioP2;P2;SDS_P1;SDS_P2;PMS_P1;PMS_P2;Temp;Humidity;BMP_temperature;BMP_pressure;BME280_temperature;BME280_humidity;BME280_pressure;Samples;Min_cycle;Max_cycle;Signal;HPM_P1;HPM_P2
2022/08/20 00:00:35;;;;;;;2.83;1.90;;;23.80;92.70;;;;;;5028604;28;20397;-76
2022/08/20 00:03:18;;;;;;;2.55;2.10;;;23.80;92.60;;;;;;5028922;28;20026;-77
2022/08/20 00:05:52;;;;;;;2.90;2.00;;;23.80;92.80;;;;;;5033739;28;20032;-76
2022/08/20 00:08:20;;;;;;;2.63;2.00;;;23.80;92.60;;;;;;5034923;28;20101;-77
2022/08/20 00:10:47;;;;;;;2.83;1.88;;;23.80;92.40;;;;;;5032399;28;20140;-77
2022/08/20 00:13:17;;;;;;;2.97;2.10;;;23.70;92.40;;;;;;5029342;28;20021;-77
2022/08/20 00:15:43;;;;;;;3.67;2.15;;;23.70;92.60;;;;;;5023180;28;20025;-77
2022/08/20 00:18:10;;;;;;;3.25;2.15;;;23.80;93.00;;;;;;5027631;28;20492;-77
2022/08/20 00:20:39;;;;;;;3.83;2.50;;;23.80;92.90;;;;;;5033886;28;20026;-77
2022/08/20 00:23:05;;;;;;;3.75;2.30;;;23.70;93.00;;;;;;5031880;28;20036;-76
2022/08/20 00:25:32;;;;;;;2.97;2.20;;;23.70;92.70;;;;;;5036031;28;20034;-77
2022/08/20 00:27:58;;;;;;;4.05;2.28;;;23.70;92.80;;;;;;5028381;28;20030;-77
2022/08/20 00:30:25;;;;;;;4.05;2.40;;;23.70;92.90;;;;;;5028648;28;20067;-76
2022/08/20 00:33:01;;;;;;;3.15;2.15;;;23.70;92.80;;;;;;5030404;28;20025;-76
2022/08/20 00:35:30;;;;;;;2.55;2.30;;;23.70;92.80;;;;;;5040961;28;20034;-76
2022/08/20 00:37:56;;;;;;;3.40;2.38;;;23.70;92.80;;;;;;5031547;28;20063;-77
2022/08/20 00:40:26;;;;;;;2.97;2.50;;;23.70;93.00;;;;;;5028296;28;20110;-77
2022/08/20 00:42:58;;;;;;;3.15;2.47;;;23.70;93.10;;;;;;5021330;28;20033;-76
2022/08/20 00:45:30;;;;;;;5.50;2.38;;;23.70;93.00;;;;;;5029860;28;20032;-77
2022/08/20 00:47:56;;;;;;;3.13;2.40;;;23.70;92.90;;;;;;5024539;28;20037;-76
2022/08/20 00:50:35;;;;;;;2.33;1.98;;;23.70;92.80;;;;;;5034352;28;20033;-77
2022/08/20 00:53:04;;;;;;;2.10;1.83;;;23.60;92.60;;;;;;5024489;28;20028;-77
2022/08/20 00:55:31;;;;;;;2.65;1.80;;;23.60;92.50;;;;;;5031418;28;20033;-76
2022/08/20 00:58:01;;;;;;;5.25;2.80;;;23.60;92.80;;;;;;5019189;28;20026;-77
2022/08/20 01:00:36;;;;;;;2.40;2.00;;;23.60;92.70;;;;;;5026540;28;20026;-76
2022/08/20 01:03:04;;;;;;;2.88;2.20;;;23.60;92.60;;;;;;5033624;28;20030;-77
2022/08/20 01:05:30;;;;;;;3.65;1.98;;;23.60;92.60;;;;;;5024309;28;20035;-77
2022/08/20 01:07:57;;;;;;;3.17;2.05;;;23.60;92.60;;;;;;5025412;28;20030;-77
2022/08/20 01:10:27;;;;;;;2.92;1.98;;;23.60;92.80;;;;;;5027040;28;21051;-77
2022/08/20 01:12:56;;;;;;;3.25;1.95;;;23.60;92.70;;;;;;5024577;28;20022;-76
2022/08/20 01:15:25;;;;;;;4.28;1.95;;;23.60;92.70;;;;;;5030573;28;20036;-76
2022/08/20 01:17:57;;;;;;;3.50;2.08;;;23.60;92.80;;;;;;5023118;28;20120;-77
2022/08/20 01:21:00;;;;;;;2.17;1.98;;;23.60;92.70;;;;;;5042095;28;20061;-76
2022/08/20 01:23:46;;;;;;;2.78;2.42;;;23.60;92.90;;;;;;5023865;28;20436;-76
2022/08/20 01:26:21;;;;;;;2.72;2.42;;;23.60;92.80;;;;;;5026483;28;20513;-77
2022/08/20 01:28:52;;;;;;;2.70;2.50;;;23.60;92.80;;;;;;5027245;28;20022;-77
2022/08/20 01:31:24;;;;;;;3.58;2.45;;;23.60;92.90;;;;;;5051900;28;20028;-77
2022/08/20 01:33:52;;;;;;;3.20;2.33;;;23.50;93.00;;;;;;5027475;28;20104;-76
2022/08/20 01:36:22;;;;;;;3.58;2.63;;;23.60;93.20;;;;;;5026217;28;20393;-77
2022/08/20 01:38:48;;;;;;;3.22;2.40;;;23.60;93.10;;;;;;5049206;28;20474;-77
2022/08/20 01:41:44;;;;;;;3.05;2.15;;;23.60;93.10;;;;;;5032903;28;20056;-74
2022/08/20 01:44:11;;;;;;;5.65;2.67;;;23.50;93.00;;;;;;5031281;28;20033;-77
2022/08/20 01:46:41;;;;;;;3.42;2.33;;;23.60;93.10;;;;;;5025489;28;20022;-77
2022/08/20 01:49:24;;;;;;;2.90;2.22;;;23.50;92.90;;;;;;5026587;28;20048;-77
2022/08/20 01:51:51;;;;;;;3.08;2.53;;;23.50;92.70;;;;;;5031793;28;20076;-77
2022/08/20 01:54:17;;;;;;;2.85;2.42;;;23.50;93.00;;;;;;5031132;28;20030;-77
2022/08/20 01:56:56;;;;;;;5.15;2.80;;;23.50;93.10;;;;;;5029875;28;20018;-77
2022/08/20 01:59:22;;;;;;;3.70;2.65;;;23.50;92.90;;;;;;5043626;28;20037;-77
2022/08/20 02:01:49;;;;;;;4.28;2.88;;;23.50;92.90;;;;;;5018232;28;20057;-77
2022/08/20 02:04:17;;;;;;;3.85;2.85;;;23.50;92.80;;;;;;5016172;28;20062;-78
2022/08/20 02:06:47;;;;;;;2.55;2.35;;;23.40;92.70;;;;;;5041611;28;20488;-77
2022/08/20 02:09:13;;;;;;;3.10;2.65;;;23.40;92.60;;;;;;5037093;28;20026;-77
2022/08/20 02:11:38;;;;;;;2.97;2.47;;;23.40;92.50;;;;;;5026665;28;20034;-78
2022/08/20 02:14:09;;;;;;;2.83;2.38;;;23.40;92.40;;;;;;5025228;28;20252;-78
2022/08/20 02:16:38;;;;;;;2.70;2.30;;;23.40;92.30;;;;;;5034409;28;20033;-78
2022/08/20 02:19:11;;;;;;;4.40;2.75;;;23.40;92.40;;;;;;5025912;28;20038;-77
2022/08/20 02:21:43;;;;;;;4.18;3.10;;;23.40;92.60;;;;;;5022815;28;20029;-78
2022/08/20 02:24:09;;;;;;;3.78;2.92;;;23.40;92.60;;;;;;5049293;28;20038;-77
2022/08/20 02:26:36;;;;;;;3.50;2.42;;;23.40;92.80;;;;;;5025312;28;20486;-77
2022/08/20 02:29:05;;;;;;;2.88;2.50;;;23.40;92.60;;;;;;5017906;28;20022;-77
2022/08/20 02:31:31;;;;;;;3.75;2.25;;;23.40;92.40;;;;;;5025638;28;20509;-77
2022/08/20 02:33:57;;;;;;;2.90;2.60;;;23.40;92.60;;;;;;5021349;28;20055;-77
2022/08/20 02:36:23;;;;;;;4.50;2.72;;;23.40;92.60;;;;;;5029868;28;20025;-77
2022/08/20 02:38:49;;;;;;;4.57;2.92;;;23.40;92.60;;;;;;5025434;28;20036;-77
2022/08/20 02:41:14;;;;;;;4.38;2.60;;;23.40;93.10;;;;;;5024404;28;20401;-77
2022/08/20 02:43:40;;;;;;;3.78;3.25;;;23.40;92.90;;;;;;5027341;28;20047;-77
2022/08/20 02:46:07;;;;;;;3.85;2.60;;;23.30;92.80;;;;;;5037647;28;20037;-77
2022/08/20 02:48:33;;;;;;;3.08;2.78;;;23.30;92.70;;;;;;5034693;28;20017;-77
2022/08/20 02:51:02;;;;;;;5.45;2.67;;;23.30;92.40;;;;;;5028385;28;20078;-78
2022/08/20 02:53:33;;;;;;;4.90;2.78;;;23.30;92.50;;;;;;5026355;28;20030;-77
2022/08/20 02:55:59;;;;;;;4.10;3.00;;;23.30;92.50;;;;;;5040764;28;20163;-77
2022/08/20 02:58:26;;;;;;;4.50;3.05;;;23.30;92.50;;;;;;5036466;28;20025;-77
2022/08/20 03:00:53;;;;;;;3.38;2.65;;;23.30;92.40;;;;;;5040092;28;20040;-77
2022/08/20 03:03:21;;;;;;;3.45;3.00;;;23.30;92.40;;;;;;5039214;28;20478;-77
2022/08/20 03:05:48;;;;;;;3.50;2.80;;;23.30;92.40;;;;;;5036747;28;20030;-77
2022/08/20 03:08:15;;;;;;;3.67;2.70;;;23.20;92.40;;;;;;5034163;28;20025;-77
2022/08/20 03:10:44;;;;;;;4.15;2.90;;;23.20;92.50;;;;;;5024038;28;20080;-77
2022/08/20 03:13:11;;;;;;;3.25;2.75;;;23.20;92.40;;;;;;5019081;28;20030;-77
2022/08/20 03:15:58;;;;;;;3.38;2.72;;;23.20;92.40;;;;;;5035965;28;20044;-77
2022/08/20 03:18:30;;;;;;;4.88;2.55;;;23.30;92.50;;;;;;5039666;28;20525;-78
2022/08/20 03:20:56;;;;;;;4.05;2.80;;;23.20;92.40;;;;;;5040418;28;20057;-77
2022/08/20 03:23:21;;;;;;;3.03;2.58;;;23.30;92.50;;;;;;5029970;28;20065;-77
2022/08/20 03:25:48;;;;;;;2.90;2.40;;;23.20;92.50;;;;;;5022101;28;20029;-78
2022/08/20 03:28:15;;;;;;;2.60;2.40;;;23.20;92.50;;;;;;5042448;28;20049;-78
2022/08/20 03:30:42;;;;;;;4.63;2.55;;;23.20;92.50;;;;;;5043992;28;20474;-77
2022/08/20 03:33:08;;;;;;;3.03;2.72;;;23.20;92.50;;;;;;5032117;28;20486;-77
2022/08/20 03:35:36;;;;;;;3.05;2.40;;;23.20;92.50;;;;;;5036549;28;20021;-77
2022/08/20 03:38:07;;;;;;;2.75;2.50;;;23.20;92.60;;;;;;5035811;28;20406;-78
2022/08/20 03:40:34;;;;;;;5.40;2.63;;;23.20;92.60;;;;;;5029751;28;20063;-77
2022/08/20 03:43:00;;;;;;;3.65;2.45;;;23.20;92.50;;;;;;5024986;28;20096;-77
2022/08/20 03:45:28;;;;;;;3.30;2.17;;;23.20;92.50;;;;;;5036577;28;20470;-78
2022/08/20 03:47:55;;;;;;;3.28;2.28;;;23.10;92.50;;;;;;5033669;28;20079;-78
2022/08/20 03:50:25;;;;;;;3.17;2.67;;;23.20;92.50;;;;;;5030407;28;20084;-78
2022/08/20 03:52:52;;;;;;;3.58;2.55;;;23.20;92.60;;;;;;5043353;28;20064;-78
2022/08/20 03:55:20;;;;;;;3.25;2.42;;;23.10;92.60;;;;;;5033027;28;20025;-78
2022/08/20 03:57:48;;;;;;;2.38;2.17;;;23.20;92.60;;;;;;5039621;28;20131;-77
2022/08/20 04:00:18;;;;;;;2.80;2.30;;;23.20;92.50;;;;;;5026325;28;20382;-78
2022/08/20 04:02:43;;;;;;;2.75;2.35;;;23.20;92.60;;;;;;5030318;28;20402;-77
2022/08/20 04:05:09;;;;;;;3.50;2.78;;;23.20;92.60;;;;;;5047090;28;20091;-77
2022/08/20 04:07:36;;;;;;;4.15;2.50;;;23.10;92.60;;;;;;5042610;28;20038;-77
2022/08/20 04:10:06;;;;;;;2.72;2.28;;;23.10;92.60;;;;;;5046610;28;20052;-77
2022/08/20 04:12:32;;;;;;;2.70;2.03;;;23.10;92.60;;;;;;5018717;28;20026;-77
2022/08/20 04:14:58;;;;;;;3.97;2.50;;;23.10;92.60;;;;;;5030522;28;20040;-78
2022/08/20 04:17:24;;;;;;;3.15;2.38;;;23.10;92.80;;;;;;5034759;28;20029;-78
2022/08/20 04:19:49;;;;;;;2.88;2.20;;;23.10;92.70;;;;;;5032045;28;20049;-78
2022/08/20 04:22:15;;;;;;;4.50;2.53;;;23.10;92.70;;;;;;5030225;28;20059;-78
2022/08/20 04:24:41;;;;;;;4.82;2.28;;;23.10;92.70;;;;;;5042463;28;20033;-78
2022/08/20 04:27:09;;;;;;;3.97;2.45;;;23.10;92.80;;;;;;5035409;28;20033;-77
2022/08/20 04:29:35;;;;;;;3.28;2.38;;;23.00;92.70;;;;;;5040102;28;20044;-77
2022/08/20 04:32:04;;;;;;;3.20;2.63;;;23.10;93.00;;;;;;5031466;28;20021;-77
2022/08/20 04:34:30;;;;;;;2.83;2.40;;;23.10;93.10;;;;;;5038158;28;20029;-77
2022/08/20 04:36:56;;;;;;;6.00;3.17;;;23.10;93.20;;;;;;5033317;28;20044;-77
2022/08/20 04:39:22;;;;;;;2.50;2.30;;;23.10;93.00;;;;;;5045935;28;20201;-77
2022/08/20 04:41:48;;;;;;;4.85;2.60;;;23.10;93.00;;;;;;5021051;28;20029;-77
2022/08/20 04:44:14;;;;;;;2.92;2.58;;;23.10;93.00;;;;;;5022578;28;20081;-78
2022/08/20 04:46:40;;;;;;;2.92;2.45;;;23.00;93.00;;;;;;5031138;28;20071;-77
2022/08/20 04:49:06;;;;;;;3.67;2.60;;;23.00;92.80;;;;;;5035335;28;20055;-77
2022/08/20 04:51:32;;;;;;;3.63;2.28;;;23.00;92.80;;;;;;5037198;28;20033;-77
2022/08/20 04:53:59;;;;;;;3.50;2.22;;;23.00;92.80;;;;;;5024429;28;20018;-77
2022/08/20 04:56:37;;;;;;;3.00;2.42;;;23.00;92.80;;;;;;5039850;28;20038;-78
2022/08/20 04:59:04;;;;;;;3.42;2.40;;;23.00;92.80;;;;;;5034893;28;20117;-77
2022/08/20 05:01:30;;;;;;;3.85;2.42;;;23.00;92.80;;;;;;5045513;28;20036;-77
2022/08/20 05:03:57;;;;;;;3.67;2.65;;;23.00;92.80;;;;;;5031251;28;20040;-78
2022/08/20 05:06:27;;;;;;;3.50;2.22;;;22.90;92.80;;;;;;5031435;28;20401;-77
2022/08/20 05:08:55;;;;;;;3.08;2.15;;;23.00;93.10;;;;;;5041889;28;20036;-77
2022/08/20 05:11:22;;;;;;;3.50;2.33;;;23.00;92.90;;;;;;5024693;28;20030;-77
2022/08/20 05:13:49;;;;;;;3.25;2.90;;;23.00;93.00;;;;;;5032992;28;20052;-78
2022/08/20 05:16:16;;;;;;;2.95;2.20;;;23.00;93.30;;;;;;5023490;28;20033;-78
2022/08/20 05:18:43;;;;;;;2.97;2.47;;;23.00;93.10;;;;;;5032519;28;20025;-79
2022/08/20 05:21:09;;;;;;;3.97;3.13;;;23.00;93.10;;;;;;5035907;28;20120;-78
2022/08/20 05:23:37;;;;;;;2.80;2.38;;;23.00;92.90;;;;;;5040490;28;20474;-78
2022/08/20 05:26:06;;;;;;;2.85;2.35;;;22.90;93.00;;;;;;5032187;28;20026;-78
2022/08/20 05:28:32;;;;;;;4.32;2.95;;;22.90;93.00;;;;;;5054714;28;20033;-76
2022/08/20 05:31:00;;;;;;;3.40;2.30;;;23.00;93.00;;;;;;5050461;28;20044;-78
2022/08/20 05:33:27;;;;;;;4.10;2.67;;;22.90;93.10;;;;;;5044677;28;20486;-80
2022/08/20 05:35:54;;;;;;;3.30;3.00;;;22.90;93.30;;;;;;5038653;28;20398;-83
2022/08/20 05:38:23;;;;;;;3.55;2.30;;;22.90;93.10;;;;;;5038020;28;20147;-82
2022/08/20 05:40:49;;;;;;;3.13;2.58;;;22.90;93.20;;;;;;5024553;28;20030;-81
2022/08/20 05:43:17;;;;;;;4.13;2.83;;;22.90;93.30;;;;;;5027163;28;20030;-82
2022/08/20 05:45:44;;;;;;;5.07;2.90;;;22.90;93.60;;;;;;5043942;28;20102;-82
2022/08/20 05:48:16;;;;;;;3.30;2.60;;;22.90;93.30;;;;;;5039215;28;20173;-82
2022/08/20 05:50:44;;;;;;;4.13;2.63;;;22.90;93.20;;;;;;5046442;28;20025;-82
2022/08/20 05:53:10;;;;;;;5.20;2.83;;;22.90;93.20;;;;;;5030905;28;20387;-83
2022/08/20 05:55:37;;;;;;;4.75;2.67;;;22.90;93.40;;;;;;5046022;28;20025;-83
2022/08/20 05:58:05;;;;;;;2.72;2.35;;;22.90;93.50;;;;;;5041234;28;20034;-83
2022/08/20 06:00:32;;;;;;;3.65;2.45;;;22.90;93.50;;;;;;5045174;28;20032;-82
2022/08/20 06:05:43;;;;;;;3.20;2.22;;;22.90;93.40;;;;;;5041263;28;20128;-81
2022/08/20 06:08:10;;;;;;;2.95;2.22;;;22.90;93.60;;;;;;5030479;28;20032;-80
2022/08/20 06:10:38;;;;;;;4.53;2.47;;;22.90;93.40;;;;;;5034658;28;20431;-80
2022/08/20 06:13:04;;;;;;;2.78;2.30;;;22.90;93.80;;;;;;5026794;28;20091;-79
2022/08/20 06:15:31;;;;;;;3.15;2.17;;;22.90;93.60;;;;;;5029710;28;20531;-79
2022/08/20 06:17:57;;;;;;;2.67;2.28;;;22.80;93.90;;;;;;5036931;28;20171;-79
2022/08/20 06:20:23;;;;;;;4.78;2.58;;;22.80;93.50;;;;;;5036119;28;20121;-78
2022/08/20 06:22:49;;;;;;;2.20;1.83;;;22.80;93.50;;;;;;5042174;28;20056;-78
2022/08/20 06:25:15;;;;;;;2.20;1.92;;;22.80;93.50;;;;;;5028399;28;20068;-78
2022/08/20 06:27:42;;;;;;;3.88;2.45;;;22.80;93.70;;;;;;5038313;28;20024;-79
2022/08/20 06:30:10;;;;;;;3.83;2.33;;;22.80;93.60;;;;;;5023274;28;20025;-78
2022/08/20 06:32:36;;;;;;;2.30;2.00;;;22.80;93.50;;;;;;5034100;28;20042;-78
2022/08/20 06:35:05;;;;;;;2.42;1.75;;;22.80;93.40;;;;;;5043555;28;20136;-77
2022/08/20 06:37:35;;;;;;;3.47;1.95;;;22.80;93.70;;;;;;5030019;28;20623;-77
2022/08/20 06:40:09;;;;;;;4.80;2.95;;;22.80;93.60;;;;;;5036070;28;20032;-77
2022/08/20 06:42:36;;;;;;;2.78;2.25;;;22.80;93.60;;;;;;5027819;28;20115;-77
2022/08/20 06:45:04;;;;;;;2.40;2.10;;;22.80;93.80;;;;;;5035345;28;20029;-77
2022/08/20 06:47:30;;;;;;;2.53;2.33;;;22.80;93.60;;;;;;5022124;28;20026;-77
2022/08/20 06:49:57;;;;;;;2.80;2.22;;;22.80;93.70;;;;;;5030821;28;20561;-77
2022/08/20 06:52:22;;;;;;;4.72;3.50;;;22.80;93.80;;;;;;5027561;28;20475;-76
2022/08/20 06:54:48;;;;;;;4.95;3.78;;;22.80;93.80;;;;;;5032354;28;20025;-77
2022/08/20 06:57:14;;;;;;;5.93;4.03;;;22.80;93.80;;;;;;5036775;28;20040;-76
2022/08/20 06:59:40;;;;;;;4.03;3.63;;;22.80;93.80;;;;;;5029993;28;20024;-77
2022/08/20 07:02:06;;;;;;;4.75;4.22;;;22.80;94.10;;;;;;5012763;28;20172;-77
2022/08/20 07:04:33;;;;;;;7.35;5.13;;;22.70;93.80;;;;;;5043822;28;20086;-78
2022/08/20 07:06:58;;;;;;;5.18;4.68;;;22.70;93.90;;;;;;5041396;28;20397;-77
2022/08/20 07:09:27;;;;;;;5.78;5.28;;;22.70;93.90;;;;;;5028180;28;20030;-77
2022/08/20 07:11:52;;;;;;;6.90;5.32;;;22.70;93.90;;;;;;5032967;28;20052;-77
2022/08/20 07:14:19;;;;;;;7.07;5.57;;;22.70;94.00;;;;;;5020421;28;20260;-77
2022/08/20 07:16:46;;;;;;;6.80;6.10;;;22.70;94.00;;;;;;5033614;28;20079;-77
2022/08/20 07:19:13;;;;;;;6.40;5.80;;;22.70;94.20;;;;;;5027603;28;20048;-77
2022/08/20 07:21:39;;;;;;;8.52;6.95;;;22.70;94.30;;;;;;5033079;28;20425;-76
2022/08/20 07:24:05;;;;;;;7.57;6.60;;;22.70;93.90;;;;;;5026989;28;20497;-77
2022/08/20 07:26:31;;;;;;;7.95;6.85;;;22.70;94.10;;;;;;5044256;28;20029;-77
2022/08/20 07:28:57;;;;;;;9.68;7.75;;;22.70;94.00;;;;;;5036599;28;20535;-77
2022/08/20 07:34:10;;;;;;;8.32;7.47;;;22.70;94.10;;;;;;5029402;28;20057;-78
2022/08/20 07:36:36;;;;;;;10.27;8.48;;;22.70;94.20;;;;;;5035958;28;20040;-77
2022/08/20 07:39:02;;;;;;;9.10;8.15;;;22.70;94.30;;;;;;5035196;28;20048;-77
2022/08/20 07:41:28;;;;;;;13.25;9.35;;;22.70;94.30;;;;;;5034755;28;20060;-78
2022/08/20 07:43:55;;;;;;;11.80;8.88;;;22.70;94.40;;;;;;5040454;28;20466;-78
2022/08/20 07:46:21;;;;;;;10.05;8.43;;;22.60;94.20;;;;;;5030606;28;20037;-78
2022/08/20 07:48:48;;;;;;;9.40;8.48;;;22.60;94.20;;;;;;5031446;28;20017;-78
2022/08/20 07:51:16;;;;;;;9.82;8.45;;;22.60;94.20;;;;;;5042570;28;20112;-78
2022/08/20 07:53:45;;;;;;;9.95;8.90;;;22.60;94.50;;;;;;5030348;28;20175;-77
2022/08/20 07:56:14;;;;;;;12.05;9.10;;;22.60;94.50;;;;;;5032570;28;20602;-78
2022/08/20 07:58:48;;;;;;;10.45;9.35;;;22.60;94.30;;;;;;5022848;28;20112;-78
2022/08/20 08:01:18;;;;;;;10.77;9.05;;;22.60;94.60;;;;;;5045659;28;20033;-78
2022/08/20 08:03:44;;;;;;;10.32;9.15;;;22.60;94.50;;;;;;5030613;28;20033;-78
2022/08/20 08:06:11;;;;;;;10.77;9.18;;;22.60;94.50;;;;;;5035747;28;20042;-78
2022/08/20 08:08:39;;;;;;;9.80;8.77;;;22.60;94.60;;;;;;5028062;28;20032;-78
2022/08/20 08:11:05;;;;;;;11.82;10.32;;;22.60;94.60;;;;;;5033286;28;20026;-78
2022/08/20 08:13:36;;;;;;;12.85;10.35;;;22.60;94.60;;;;;;5032938;28;20053;-79
2022/08/20 08:16:05;;;;;;;11.50;9.98;;;22.60;94.80;;;;;;5033535;28;20087;-79
2022/08/20 08:18:38;;;;;;;12.00;10.80;;;22.60;94.80;;;;;;5046499;28;20120;-77
2022/08/20 08:21:06;;;;;;;11.15;9.68;;;22.60;94.80;;;;;;5030082;28;20029;-78
2022/08/20 08:23:33;;;;;;;13.57;9.98;;;22.60;94.60;;;;;;5030890;28;20510;-79
2022/08/20 08:25:59;;;;;;;10.77;9.68;;;22.60;94.70;;;;;;5035885;28;20048;-79
2022/08/20 08:28:28;;;;;;;11.43;10.23;;;22.60;94.50;;;;;;5027905;28;20048;-79
2022/08/20 08:30:54;;;;;;;11.20;9.55;;;22.50;94.60;;;;;;5040679;28;20025;-79
2022/08/20 08:33:32;;;;;;;12.05;10.20;;;22.50;94.40;;;;;;5030954;28;20516;-78
2022/08/20 08:36:08;;;;;;;9.85;8.55;;;22.50;94.50;;;;;;5027104;28;20540;-79
2022/08/20 08:38:36;;;;;;;10.43;8.65;;;22.50;94.50;;;;;;5026918;28;20389;-77
2022/08/20 08:41:24;;;;;;;11.60;9.32;;;22.60;94.60;;;;;;5037050;28;20156;-78
2022/08/20 08:43:53;;;;;;;11.20;9.13;;;22.60;94.90;;;;;;5048924;28;20378;-77
2022/08/20 08:46:23;;;;;;;11.30;8.75;;;22.50;94.60;;;;;;5031371;28;20505;-77
2022/08/20 08:48:54;;;;;;;10.85;9.02;;;22.50;94.50;;;;;;5031432;28;20530;-78
2022/08/20 08:51:31;;;;;;;10.68;8.90;;;22.50;94.50;;;;;;5040225;28;20394;-78
2022/08/20 08:53:58;;;;;;;9.73;7.75;;;22.50;94.40;;;;;;5019980;28;20047;-78
2022/08/20 08:56:27;;;;;;;11.10;9.50;;;22.50;94.40;;;;;;5053985;28;20037;-78
2022/08/20 08:59:03;;;;;;;9.65;8.50;;;22.50;94.40;;;;;;5026963;28;20025;-78
2022/08/20 09:01:32;;;;;;;10.55;8.80;;;22.50;94.60;;;;;;5032208;28;20025;-78
2022/08/20 09:04:00;;;;;;;8.05;7.05;;;22.50;94.60;;;;;;5038285;28;20049;-78
2022/08/20 09:06:27;;;;;;;10.77;9.18;;;22.50;94.60;;;;;;5027443;28;20105;-78
2022/08/20 09:08:56;;;;;;;9.55;8.55;;;22.50;94.50;;;;;;5025238;28;20029;-78
2022/08/20 09:11:24;;;;;;;11.57;9.00;;;22.50;94.50;;;;;;5032531;28;20041;-78
2022/08/20 09:13:53;;;;;;;10.57;9.45;;;22.60;95.00;;;;;;5025887;28;20261;-78
2022/08/20 09:16:21;;;;;;;11.10;9.88;;;22.60;95.00;;;;;;5035814;28;20033;-78
2022/08/20 09:18:47;;;;;;;11.25;9.70;;;22.60;95.10;;;;;;5028537;28;20030;-79
2022/08/20 09:21:14;;;;;;;14.15;10.30;;;22.60;94.90;;;;;;5034149;28;20029;-78
2022/08/20 09:23:40;;;;;;;11.43;9.32;;;22.50;94.70;;;;;;5030157;28;20022;-79
2022/08/20 09:26:06;;;;;;;14.02;9.43;;;22.50;94.70;;;;;;5033493;28;20033;-79
2022/08/20 09:28:32;;;;;;;10.98;9.68;;;22.50;94.60;;;;;;5043069;28;20132;-79
2022/08/20 09:30:59;;;;;;;10.63;9.55;;;22.50;94.90;;;;;;5030134;28;20048;-79
2022/08/20 09:33:25;;;;;;;10.63;9.40;;;22.50;94.70;;;;;;5039636;28;20116;-79
2022/08/20 09:35:51;;;;;;;13.90;10.30;;;22.40;94.60;;;;;;5031015;28;20036;-79
2022/08/20 09:38:17;;;;;;;12.30;9.80;;;22.40;94.70;;;;;;5029678;28;20245;-79
2022/08/20 09:40:43;;;;;;;11.00;9.48;;;22.50;94.70;;;;;;5033541;28;20033;-79
2022/08/20 09:43:09;;;;;;;16.42;14.00;;;22.50;94.60;;;;;;5033049;28;20045;-83
2022/08/20 09:45:35;;;;;;;30.38;22.02;;;22.50;95.10;;;;;;5042383;28;20021;-75
2022/08/20 09:48:01;;;;;;;26.85;23.73;;;22.40;96.20;;;;;;5026071;28;20100;-75
2022/08/20 09:50:31;;;;;;;27.33;24.13;;;22.40;95.80;;;;;;5034698;28;20030;-76
2022/08/20 09:52:58;;;;;;;27.33;24.42;;;22.30;95.60;;;;;;5039795;28;20025;-75
2022/08/20 09:55:38;;;;;;;29.45;25.38;;;22.30;95.50;;;;;;5023541;28;20423;-76
2022/08/20 09:58:11;;;;;;;25.70;22.88;;;22.30;95.50;;;;;;5023511;28;20033;-76
2022/08/20 10:00:38;;;;;;;28.23;23.75;;;22.30;95.40;;;;;;5032670;28;20448;-75
2022/08/20 10:03:04;;;;;;;25.08;22.48;;;22.30;95.40;;;;;;5016205;28;20030;-75
2022/08/20 10:05:30;;;;;;;25.60;22.95;;;22.30;95.40;;;;;;5036518;28;20025;-75
2022/08/20 10:07:56;;;;;;;25.73;23.20;;;22.30;95.30;;;;;;5030725;28;20029;-75
2022/08/20 10:10:22;;;;;;;24.02;21.50;;;22.30;95.50;;;;;;5026986;28;20112;-76
2022/08/20 10:12:48;;;;;;;24.42;20.50;;;22.40;95.40;;;;;;5022877;28;20124;-75
2022/08/20 10:15:13;;;;;;;22.75;20.35;;;22.30;95.30;;;;;;5026384;28;20292;-75
2022/08/20 10:17:41;;;;;;;23.00;20.75;;;22.40;95.20;;;;;;5018964;28;20494;-75
2022/08/20 10:20:10;;;;;;;24.27;21.67;;;22.40;95.20;;;;;;5037853;28;20059;-75
2022/08/20 10:22:36;;;;;;;24.35;21.85;;;22.40;95.50;;;;;;5023859;28;20033;-75
2022/08/20 10:25:02;;;;;;;24.38;21.80;;;22.40;95.30;;;;;;5029317;28;20040;-75
2022/08/20 10:27:29;;;;;;;23.45;21.05;;;22.40;95.30;;;;;;5023283;28;20050;-76
2022/08/20 10:29:55;;;;;;;23.08;20.77;;;22.40;95.50;;;;;;5014594;28;20038;-76
2022/08/20 10:32:20;;;;;;;24.65;22.05;;;22.30;95.20;;;;;;5037487;28;20076;-76
2022/08/20 10:34:46;;;;;;;25.55;21.70;;;22.30;95.20;;;;;;5031918;28;20045;-76
2022/08/20 10:37:18;;;;;;;23.17;20.83;;;22.30;95.20;;;;;;5030706;28;20037;-76
2022/08/20 10:39:45;;;;;;;25.15;22.45;;;22.30;95.20;;;;;;5032518;28;20040;-76
2022/08/20 10:42:11;;;;;;;25.77;23.00;;;22.30;95.10;;;;;;5019435;28;20055;-76
2022/08/20 10:44:37;;;;;;;25.33;22.75;;;22.30;95.10;;;;;;5034327;28;20025;-76
2022/08/20 10:47:16;;;;;;;23.38;21.00;;;22.30;95.20;;;;;;5029326;28;20116;-76
2022/08/20 10:49:42;;;;;;;23.35;21.02;;;22.30;95.30;;;;;;5027918;28;20371;-76
2022/08/20 10:52:08;;;;;;;24.27;21.60;;;22.40;95.20;;;;;;5036730;28;20072;-76
2022/08/20 10:54:34;;;;;;;26.35;22.38;;;22.40;95.40;;;;;;5036617;28;20025;-76
2022/08/20 10:57:03;;;;;;;27.67;21.83;;;22.40;95.50;;;;;;5030153;28;20068;-76
2022/08/20 10:59:29;;;;;;;26.73;24.00;;;22.40;95.90;;;;;;5033087;28;20573;-76
2022/08/20 11:01:55;;;;;;;24.98;22.35;;;22.40;95.80;;;;;;5039979;28;20065;-76
2022/08/20 11:04:21;;;;;;;26.40;23.08;;;22.40;95.70;;;;;;5021846;28;20068;-76
2022/08/20 11:06:56;;;;;;;25.35;22.70;;;22.40;95.80;;;;;;5025223;28;20697;-82
2022/08/20 11:09:22;;;;;;;22.23;19.05;;;22.40;95.80;;;;;;5026391;28;20394;-81
2022/08/20 11:11:48;;;;;;;22.15;19.08;;;22.40;96.80;;;;;;5037973;28;20096;-80
2022/08/20 11:14:18;;;;;;;21.23;16.60;;;22.40;96.40;;;;;;5027146;28;20041;-81
2022/08/20 11:16:44;;;;;;;27.10;18.50;;;22.60;96.00;;;;;;5026307;28;20112;-82
2022/08/20 11:19:09;;;;;;;25.65;17.33;;;22.40;95.90;;;;;;5029230;28;20116;-81
2022/08/20 11:21:38;;;;;;;24.60;18.02;;;22.50;95.80;;;;;;5032647;28;20525;-80
2022/08/20 11:24:04;;;;;;;19.15;16.98;;;22.50;96.20;;;;;;5034116;28;20041;-81
2022/08/20 11:26:33;;;;;;;20.73;16.52;;;22.50;96.20;;;;;;5028967;28;20029;-81
2022/08/20 11:28:58;;;;;;;23.80;18.17;;;22.40;96.20;;;;;;5040201;28;20035;-81
2022/08/20 11:31:24;;;;;;;21.02;14.75;;;22.50;96.80;;;;;;5028923;28;20025;-82
2022/08/20 11:33:53;;;;;;;22.17;14.70;;;22.60;95.70;;;;;;5029325;28;20128;-82
2022/08/20 11:36:19;;;;;;;14.63;12.45;;;22.70;95.60;;;;;;5033492;28;20026;-82
2022/08/20 11:38:53;;;;;;;14.18;12.13;;;22.70;94.80;;;;;;5036827;28;20029;-82
2022/08/20 11:41:25;;;;;;;14.85;12.48;;;22.60;94.80;;;;;;5034534;28;20034;-81
2022/08/20 11:44:04;;;;;;;20.80;13.23;;;22.80;94.30;;;;;;5031889;28;20029;-83
2022/08/20 11:46:31;;;;;;;19.58;15.57;;;22.90;94.60;;;;;;5028028;28;20052;-82
2022/08/20 11:49:03;;;;;;;20.73;15.15;;;22.90;94.20;;;;;;5033231;28;20394;-80
2022/08/20 11:51:37;;;;;;;20.90;14.15;;;22.90;94.80;;;;;;5039041;28;20474;-81
2022/08/20 11:54:05;;;;;;;18.40;13.27;;;23.00;94.90;;;;;;5029469;28;20030;-82
2022/08/20 11:56:31;;;;;;;17.98;12.63;;;22.80;94.70;;;;;;5034683;28;20065;-82
2022/08/20 11:58:57;;;;;;;15.60;11.95;;;22.80;94.80;;;;;;5025153;28;20057;-83
2022/08/20 12:01:38;;;;;;;21.73;12.88;;;22.90;94.30;;;;;;5027410;28;20043;-82
2022/08/20 12:04:04;;;;;;;20.98;14.13;;;22.80;94.90;;;;;;5032414;28;20341;-81
2022/08/20 12:06:30;;;;;;;20.17;13.85;;;22.70;94.40;;;;;;5026950;28;20115;-82
2022/08/20 12:08:59;;;;;;;24.92;11.77;;;22.80;95.20;;;;;;5026495;28;20022;-80
2022/08/20 12:11:25;;;;;;;16.58;10.57;;;22.70;94.50;;;;;;5034302;28;20029;-82
2022/08/20 12:13:55;;;;;;;12.82;10.02;;;22.80;94.40;;;;;;5027798;28;20112;-80
2022/08/20 12:16:25;;;;;;;14.48;10.35;;;22.90;93.40;;;;;;5036408;28;20025;-81
2022/08/20 12:18:51;;;;;;;17.85;10.68;;;23.00;92.30;;;;;;5038910;28;20033;-83
2022/08/20 12:21:17;;;;;;;14.13;10.02;;;23.00;93.30;;;;;;5034171;28;20055;-83
2022/08/20 12:23:44;;;;;;;18.55;9.50;;;23.00;93.60;;;;;;5042745;28;20095;-82
2022/08/20 12:26:09;;;;;;;13.25;9.52;;;22.90;94.10;;;;;;5026023;28;20026;-83
2022/08/20 12:28:35;;;;;;;13.32;9.05;;;22.90;94.60;;;;;;5039219;28;20040;-81
2022/08/20 12:31:01;;;;;;;15.48;9.30;;;23.00;95.20;;;;;;5032524;28;20048;-82
2022/08/20 12:33:30;;;;;;;15.50;8.68;;;22.80;94.20;;;;;;5041082;28;20030;-84
2022/08/20 12:35:57;;;;;;;11.13;9.27;;;22.90;94.00;;;;;;5029947;28;20025;-84
2022/08/20 12:38:31;;;;;;;13.55;9.10;;;23.00;93.70;;;;;;5025486;28;20029;-85
2022/08/20 12:40:57;;;;;;;12.32;9.30;;;22.90;93.30;;;;;;5048938;28;20039;-83
2022/08/20 12:43:25;;;;;;;15.85;9.23;;;22.90;93.80;;;;;;5038986;28;20093;-84
2022/08/20 12:45:51;;;;;;;12.27;8.60;;;23.00;93.60;;;;;;5041301;28;20052;-83
2022/08/20 12:48:17;;;;;;;17.27;8.57;;;22.90;92.80;;;;;;5037310;28;20057;-83
2022/08/20 12:50:45;;;;;;;13.07;8.48;;;22.70;93.20;;;;;;5036687;28;20445;-84